createdAt,value
2017-10-31T00:00:17.837Z,950.1
2017-10-31T00:01:25.699Z,950.1
2017-10-31T00:02:33.889Z,950.1
2017-10-31T00:03:41.670Z,950.1
2017-10-31T00:04:49.975Z,950.1
2017-10-31T00:05:58.082Z,950.2
2017-10-31T00:07:05.854Z,950.1
2017-10-31T00:08:13.894Z,950.1
2017-10-31T00:09:22.052Z,950.1
2017-10-31T00:10:30.029Z,950.1
2017-10-31T00:11:38.035Z,950.1
2017-10-31T00:12:46.332Z,950.1
2017-10-31T00:13:56.055Z,950.0
2017-10-31T00:15:02.417Z,950.0
2017-10-31T00:16:10.811Z,950.0
2017-10-31T00:17:19.122Z,950.0
2017-10-31T00:18:26.911Z,950.0
2017-10-31T00:19:34.770Z,950.0
2017-10-31T00:20:42.727Z,950.0
2017-10-31T00:21:50.814Z,950.0
2017-10-31T00:22:59.296Z,950.0
2017-10-31T00:24:07.169Z,950.0
2017-10-31T00:25:15.194Z,950.0
2017-10-31T00:26:23.168Z,950.0
2017-10-31T00:27:31.251Z,950.1
2017-10-31T00:28:39.438Z,950.0
2017-10-31T00:29:47.483Z,950.1
2017-10-31T00:30:55.950Z,950.1
2017-10-31T00:32:04.260Z,950.1
2017-10-31T00:33:11.872Z,950.1
2017-10-31T00:34:20.006Z,950.1
2017-10-31T00:35:28.396Z,950.1
2017-10-31T00:36:36.738Z,950.1
2017-10-31T00:37:44.547Z,950.1
2017-10-31T00:38:52.140Z,950.1
2017-10-31T00:40:00.225Z,950.1
2017-10-31T00:41:08.310Z,950.1
2017-10-31T00:42:16.638Z,950.2
2017-10-31T00:43:24.513Z,950.1
2017-10-31T00:44:32.875Z,950.1
2017-10-31T00:45:41.080Z,950.1
2017-10-31T00:46:49.045Z,950.1
2017-10-31T00:47:57.191Z,950.1
2017-10-31T00:49:05.224Z,950.1
2017-10-31T00:50:13.306Z,950.1
2017-10-31T00:51:21.403Z,950.1
2017-10-31T00:52:29.489Z,950.1
2017-10-31T00:53:37.633Z,950.1
2017-10-31T00:54:45.661Z,950.1
2017-10-31T00:55:53.839Z,950.1
2017-10-31T00:57:01.930Z,950.1
2017-10-31T00:58:10.026Z,950.0
2017-10-31T00:59:18.449Z,950.1
2017-10-31T01:00:26.218Z,950.1
2017-10-31T01:01:34.536Z,950.1
2017-10-31T01:02:42.345Z,950.0
2017-10-31T01:03:50.436Z,950.1
2017-10-31T01:04:59.313Z,950.0
2017-10-31T01:06:06.618Z,950.0
2017-10-31T01:07:14.723Z,950.0
2017-10-31T01:08:22.782Z,950.0
2017-10-31T01:09:30.912Z,950.0
2017-10-31T01:10:39.237Z,950.0
2017-10-31T01:11:46.978Z,950.0
2017-10-31T01:12:55.066Z,950.0
2017-10-31T01:14:03.276Z,950.0
2017-10-31T01:15:11.339Z,950.0
2017-10-31T01:16:19.675Z,950.0
2017-10-31T01:17:27.470Z,950.0
2017-10-31T01:18:35.522Z,950.0
2017-10-31T01:19:43.611Z,950.0
2017-10-31T01:20:51.703Z,950.0
2017-10-31T01:21:59.904Z,949.9
2017-10-31T01:23:07.886Z,949.9
2017-10-31T01:24:15.959Z,949.9
2017-10-31T01:25:24.044Z,949.9
2017-10-31T01:26:32.130Z,949.9
2017-10-31T01:27:40.390Z,949.9
2017-10-31T01:28:48.311Z,949.9
2017-10-31T01:29:56.397Z,949.9
2017-10-31T01:31:04.623Z,950.0
2017-10-31T01:32:12.575Z,949.9
2017-10-31T01:33:21.636Z,949.9
2017-10-31T01:34:28.808Z,949.9
2017-10-31T01:35:36.824Z,949.9
2017-10-31T01:36:44.912Z,949.9
2017-10-31T01:37:52.999Z,950.0
2017-10-31T01:39:03.085Z,949.9
2017-10-31T01:40:09.278Z,949.9
2017-10-31T01:41:17.264Z,949.9
2017-10-31T01:42:25.348Z,949.9
2017-10-31T01:43:33.434Z,949.9
2017-10-31T01:44:42.306Z,949.9
2017-10-31T01:45:49.703Z,949.9
2017-10-31T01:46:57.786Z,949.9
2017-10-31T01:48:06.141Z,950.0
2017-10-31T01:49:14.017Z,949.9
2017-10-31T01:50:22.104Z,950.0
2017-10-31T01:51:30.137Z,950.0
2017-10-31T01:52:38.223Z,950.0
2017-10-31T01:53:46.311Z,949.9
2017-10-31T01:54:54.540Z,950.0
2017-10-31T01:56:02.604Z,949.9
2017-10-31T01:57:10.576Z,950.0
2017-10-31T01:58:18.657Z,949.9
2017-10-31T01:59:26.744Z,949.9
2017-10-31T02:00:34.832Z,949.9
2017-10-31T02:01:42.976Z,949.9
2017-10-31T02:02:51.004Z,949.9
2017-10-31T02:03:59.089Z,949.9
2017-10-31T02:05:07.233Z,949.9
2017-10-31T02:06:15.266Z,950.0
2017-10-31T02:07:23.420Z,950.0
2017-10-31T02:08:31.456Z,950.0
2017-10-31T02:09:39.540Z,950.0
2017-10-31T02:10:47.627Z,950.0
2017-10-31T02:11:55.713Z,950.0
2017-10-31T02:13:03.958Z,950.0
2017-10-31T02:14:11.898Z,950.0
2017-10-31T02:15:19.985Z,950.0
2017-10-31T02:16:28.071Z,950.0
2017-10-31T02:17:36.350Z,949.9
2017-10-31T02:18:44.364Z,949.9
2017-10-31T02:19:52.332Z,949.9
2017-10-31T02:21:00.475Z,949.9
2017-10-31T02:22:08.689Z,949.9
2017-10-31T02:23:16.592Z,949.9
2017-10-31T02:24:24.737Z,949.9
2017-10-31T02:25:32.783Z,949.9
2017-10-31T02:26:40.853Z,949.9
2017-10-31T02:27:48.941Z,949.9
2017-10-31T02:28:57.028Z,949.9
2017-10-31T02:30:05.233Z,949.9
2017-10-31T02:31:13.381Z,949.9
2017-10-31T02:32:21.426Z,949.9
2017-10-31T02:33:29.377Z,949.9
2017-10-31T02:34:37.463Z,949.8
2017-10-31T02:35:45.608Z,949.8
2017-10-31T02:36:53.695Z,949.8
2017-10-31T02:38:01.723Z,949.8
2017-10-31T02:39:10.604Z,949.9
2017-10-31T02:40:17.900Z,949.9
2017-10-31T02:41:26.108Z,949.9
2017-10-31T02:42:34.078Z,949.9
2017-10-31T02:43:42.161Z,949.9
2017-10-31T02:44:50.254Z,949.9
2017-10-31T02:45:58.363Z,949.9
2017-10-31T02:47:06.482Z,949.9
2017-10-31T02:48:14.513Z,949.9
2017-10-31T02:49:22.602Z,949.9
2017-10-31T02:50:30.690Z,949.9
2017-10-31T02:51:38.779Z,949.9
2017-10-31T02:52:46.919Z,949.9
2017-10-31T02:53:55.121Z,949.9
2017-10-31T02:55:03.153Z,949.9
2017-10-31T02:56:11.128Z,949.9
2017-10-31T02:57:19.216Z,950.0
2017-10-31T02:58:27.590Z,950.0
2017-10-31T02:59:35.481Z,950.0
2017-10-31T03:00:43.521Z,950.0
2017-10-31T03:01:51.563Z,950.0
2017-10-31T03:02:59.650Z,950.0
2017-10-31T03:04:07.900Z,950.0
2017-10-31T03:05:15.824Z,950.0
2017-10-31T03:06:23.911Z,949.9
2017-10-31T03:07:32.000Z,949.9
2017-10-31T03:08:40.228Z,949.9
2017-10-31T03:09:48.294Z,949.9
2017-10-31T03:10:56.261Z,949.8
2017-10-31T03:12:04.361Z,949.9
2017-10-31T03:13:12.625Z,949.9
2017-10-31T03:14:20.520Z,949.9
2017-10-31T03:15:28.728Z,949.9
2017-10-31T03:16:36.696Z,949.9
2017-10-31T03:17:44.791Z,949.9
2017-10-31T03:18:52.871Z,949.9
2017-10-31T03:20:01.005Z,949.9
2017-10-31T03:21:09.101Z,949.9
2017-10-31T03:22:17.320Z,949.9
2017-10-31T03:23:25.352Z,949.9
2017-10-31T03:24:33.361Z,949.9
2017-10-31T03:25:41.390Z,949.9
2017-10-31T03:26:49.602Z,949.9
2017-10-31T03:27:57.593Z,949.9
2017-10-31T03:29:05.651Z,950.0
2017-10-31T03:30:13.747Z,949.9
2017-10-31T03:31:21.826Z,950.0
2017-10-31T03:32:30.059Z,950.0
2017-10-31T03:33:38.002Z,950.0
2017-10-31T03:34:46.088Z,950.0
2017-10-31T03:35:54.176Z,950.0
2017-10-31T03:37:02.270Z,950.0
2017-10-31T03:38:10.406Z,950.0
2017-10-31T03:39:18.436Z,950.0
2017-10-31T03:40:26.645Z,950.0
2017-10-31T03:41:34.627Z,950.0
2017-10-31T03:42:42.699Z,950.1
2017-10-31T03:43:50.842Z,950.0
2017-10-31T03:44:58.872Z,950.0
2017-10-31T03:46:06.960Z,950.0
2017-10-31T03:47:15.056Z,950.0
2017-10-31T03:48:23.147Z,950.0
2017-10-31T03:49:31.352Z,950.0
2017-10-31T03:50:39.418Z,950.1
2017-10-31T03:51:47.406Z,950.1
2017-10-31T03:52:55.492Z,950.1
2017-10-31T03:54:03.580Z,950.1
2017-10-31T03:55:11.743Z,950.1
2017-10-31T03:56:19.874Z,950.1
2017-10-31T03:57:27.848Z,950.1
2017-10-31T03:58:35.928Z,950.1
2017-10-31T03:59:44.016Z,950.1
2017-10-31T04:00:52.157Z,950.1
2017-10-31T04:02:00.187Z,950.0
2017-10-31T04:03:08.274Z,950.1
2017-10-31T04:04:16.489Z,950.1
2017-10-31T04:05:24.448Z,950.1
2017-10-31T04:06:32.591Z,950.1
2017-10-31T04:07:40.622Z,950.1
2017-10-31T04:08:48.836Z,950.1
2017-10-31T04:09:56.802Z,950.1
2017-10-31T04:11:04.882Z,950.1
2017-10-31T04:12:13.141Z,950.1
2017-10-31T04:13:21.160Z,950.1
2017-10-31T04:14:29.194Z,950.0
2017-10-31T04:15:37.281Z,950.0
2017-10-31T04:16:45.377Z,950.1
2017-10-31T04:17:53.520Z,950.0
2017-10-31T04:19:01.551Z,950.1
2017-10-31T04:20:09.638Z,950.1
2017-10-31T04:21:17.725Z,950.0
2017-10-31T04:22:25.812Z,950.0
2017-10-31T04:23:34.019Z,950.0
2017-10-31T04:24:41.990Z,950.0
2017-10-31T04:25:50.075Z,950.0
2017-10-31T04:26:58.208Z,950.0
2017-10-31T04:28:06.326Z,950.0
2017-10-31T04:29:14.414Z,950.0
2017-10-31T04:30:22.443Z,950.0
2017-10-31T04:31:30.767Z,950.0
2017-10-31T04:32:38.746Z,950.0
2017-10-31T04:33:46.827Z,949.9
2017-10-31T04:34:55.034Z,949.9
2017-10-31T04:36:03.121Z,949.9
2017-10-31T04:37:11.089Z,949.9
2017-10-31T04:38:19.175Z,949.8
2017-10-31T04:39:27.263Z,949.9
2017-10-31T04:40:35.503Z,949.9
2017-10-31T04:41:43.445Z,949.9
2017-10-31T04:42:51.532Z,949.9
2017-10-31T04:43:59.676Z,949.9
2017-10-31T04:45:07.795Z,949.8
2017-10-31T04:46:15.917Z,949.9
2017-10-31T04:47:23.876Z,949.9
2017-10-31T04:48:31.964Z,949.9
2017-10-31T04:49:40.238Z,949.9
2017-10-31T04:50:48.149Z,949.9
2017-10-31T04:51:56.294Z,949.9
2017-10-31T04:53:04.320Z,949.8
2017-10-31T04:54:12.468Z,949.8
2017-10-31T04:55:20.491Z,949.8
2017-10-31T04:56:28.578Z,949.8
2017-10-31T04:57:36.733Z,949.8
2017-10-31T04:58:44.810Z,949.8
2017-10-31T04:59:52.972Z,949.7
2017-10-31T05:01:00.931Z,949.8
2017-10-31T05:02:09.020Z,949.8
2017-10-31T05:03:17.210Z,949.8
2017-10-31T05:04:25.210Z,949.8
2017-10-31T05:05:33.292Z,949.8
2017-10-31T05:06:41.383Z,949.8
2017-10-31T05:07:49.498Z,949.9
2017-10-31T05:08:57.616Z,949.9
2017-10-31T05:10:05.647Z,949.8
2017-10-31T05:11:13.733Z,949.8
2017-10-31T05:12:21.823Z,949.8
2017-10-31T05:13:29.909Z,949.8
2017-10-31T05:14:38.109Z,949.8
2017-10-31T05:15:46.134Z,949.8
2017-10-31T05:16:54.170Z,949.8
2017-10-31T05:18:02.249Z,949.8
2017-10-31T05:19:10.339Z,949.9
2017-10-31T05:20:18.479Z,949.9
2017-10-31T05:21:26.641Z,949.9
2017-10-31T05:22:34.671Z,949.9
2017-10-31T05:23:42.680Z,949.9
2017-10-31T05:24:50.767Z,949.8
2017-10-31T05:25:58.944Z,949.9
2017-10-31T05:27:06.940Z,949.9
2017-10-31T05:28:15.025Z,949.9
2017-10-31T05:29:23.120Z,949.9
2017-10-31T05:30:31.199Z,949.9
2017-10-31T05:31:39.479Z,949.9
2017-10-31T05:32:47.393Z,949.8
2017-10-31T05:33:55.456Z,949.9
2017-10-31T05:35:03.713Z,949.9
2017-10-31T05:36:11.636Z,949.9
2017-10-31T05:37:19.771Z,949.9
2017-10-31T05:38:27.803Z,949.9
2017-10-31T05:39:35.891Z,949.9
2017-10-31T05:40:43.978Z,949.9
2017-10-31T05:41:52.072Z,949.9
2017-10-31T05:43:00.214Z,949.9
2017-10-31T05:44:08.244Z,949.9
2017-10-31T05:45:16.386Z,949.9
2017-10-31T05:46:24.424Z,949.9
2017-10-31T05:47:32.627Z,949.9
2017-10-31T05:48:40.659Z,949.9
2017-10-31T05:49:48.682Z,949.9
2017-10-31T05:50:56.767Z,949.9
2017-10-31T05:52:04.853Z,949.9
2017-10-31T05:53:12.937Z,949.9
2017-10-31T05:54:21.144Z,949.9
2017-10-31T05:55:29.111Z,949.9
2017-10-31T05:56:37.197Z,949.9
2017-10-31T05:57:45.283Z,949.9
2017-10-31T05:58:53.429Z,949.9
2017-10-31T06:00:01.505Z,949.9
2017-10-31T06:01:09.540Z,949.9
2017-10-31T06:02:17.625Z,949.9
2017-10-31T06:03:25.894Z,949.9
2017-10-31T06:04:33.797Z,950.0
2017-10-31T06:05:41.941Z,949.9
2017-10-31T06:06:50.119Z,950.0
2017-10-31T06:07:58.222Z,950.0
2017-10-31T06:09:06.292Z,950.0
2017-10-31T06:10:14.377Z,950.0
2017-10-31T06:11:22.519Z,949.9
2017-10-31T06:12:30.555Z,950.0
2017-10-31T06:13:38.633Z,950.0
2017-10-31T06:14:46.720Z,950.0
2017-10-31T06:15:54.856Z,950.0
2017-10-31T06:17:03.013Z,950.0
2017-10-31T06:18:10.980Z,950.0
2017-10-31T06:19:19.120Z,950.0
2017-10-31T06:20:27.326Z,950.0
2017-10-31T06:21:35.253Z,950.0
2017-10-31T06:22:43.377Z,950.0
2017-10-31T06:23:51.407Z,950.1
2017-10-31T06:24:59.492Z,950.0
2017-10-31T06:26:07.709Z,950.0
2017-10-31T06:27:15.663Z,950.0
2017-10-31T06:28:23.873Z,950.0
2017-10-31T06:29:31.837Z,950.0
2017-10-31T06:30:39.922Z,950.0
2017-10-31T06:31:48.020Z,950.0
2017-10-31T06:32:56.122Z,950.1
2017-10-31T06:34:05.030Z,950.1
2017-10-31T06:35:13.116Z,950.1
2017-10-31T06:36:21.258Z,950.1
2017-10-31T06:37:29.225Z,950.1
2017-10-31T06:38:37.313Z,950.0
2017-10-31T06:39:45.520Z,950.0
2017-10-31T06:40:53.603Z,950.1
2017-10-31T06:42:01.743Z,950.1
2017-10-31T06:43:09.658Z,950.1
2017-10-31T06:44:17.742Z,950.1
2017-10-31T06:45:26.734Z,950.1
2017-10-31T06:46:33.912Z,950.1
2017-10-31T06:47:41.999Z,950.1
2017-10-31T06:48:50.086Z,950.1
2017-10-31T06:49:58.173Z,950.2
2017-10-31T06:51:06.455Z,950.2
2017-10-31T06:52:14.353Z,950.2
2017-10-31T06:53:22.430Z,950.3
2017-10-31T06:54:30.514Z,950.2
2017-10-31T06:55:38.999Z,950.2
2017-10-31T06:56:46.742Z,950.2
2017-10-31T06:57:54.770Z,950.2
2017-10-31T06:59:02.875Z,950.2
2017-10-31T07:00:10.964Z,950.2
2017-10-31T07:01:19.046Z,950.2
2017-10-31T07:02:27.262Z,950.2
2017-10-31T07:03:35.356Z,950.2
2017-10-31T07:04:43.360Z,950.2
2017-10-31T07:05:51.391Z,950.3
2017-10-31T07:06:59.531Z,950.2
2017-10-31T07:08:07.617Z,950.3
2017-10-31T07:09:15.693Z,950.3
2017-10-31T07:10:23.738Z,950.2
2017-10-31T07:11:31.821Z,950.3
2017-10-31T07:12:39.906Z,950.3
2017-10-31T07:13:48.178Z,950.3
2017-10-31T07:14:56.095Z,950.2
2017-10-31T07:16:04.428Z,950.3
2017-10-31T07:17:12.385Z,950.2
2017-10-31T07:18:20.389Z,950.2
2017-10-31T07:19:28.480Z,950.2
2017-10-31T07:20:36.528Z,950.2
2017-10-31T07:21:44.613Z,950.2
2017-10-31T07:22:53.230Z,950.2
2017-10-31T07:24:00.781Z,950.2
2017-10-31T07:25:09.003Z,950.2
2017-10-31T07:26:16.975Z,950.3
2017-10-31T07:27:25.218Z,950.3
2017-10-31T07:28:33.139Z,950.2
2017-10-31T07:29:41.226Z,950.2
2017-10-31T07:30:49.372Z,950.2
2017-10-31T07:31:57.542Z,950.2
2017-10-31T07:33:05.484Z,950.2
2017-10-31T07:34:14.758Z,950.2
2017-10-31T07:35:22.577Z,950.1
2017-10-31T07:36:30.529Z,950.1
2017-10-31T07:37:38.556Z,950.1
2017-10-31T07:38:46.861Z,950.1
2017-10-31T07:39:54.725Z,950.1
2017-10-31T07:41:02.810Z,950.1
2017-10-31T07:42:11.148Z,950.1
2017-10-31T07:43:18.984Z,950.1
2017-10-31T07:44:27.069Z,950.2
2017-10-31T07:45:35.155Z,950.2
2017-10-31T07:46:43.246Z,950.1
2017-10-31T07:47:51.408Z,950.1
2017-10-31T07:48:59.407Z,950.1
2017-10-31T07:50:07.491Z,950.1
2017-10-31T07:51:15.577Z,950.1
2017-10-31T07:52:23.716Z,950.1
2017-10-31T07:53:31.805Z,950.1
2017-10-31T07:54:39.954Z,950.2
2017-10-31T07:55:47.919Z,950.1
2017-10-31T07:56:56.004Z,950.2
2017-10-31T07:58:04.095Z,950.2
2017-10-31T07:59:12.239Z,950.1
2017-10-31T08:00:20.267Z,950.1
2017-10-31T08:01:28.509Z,950.1
2017-10-31T08:02:36.441Z,950.1
2017-10-31T08:03:44.527Z,950.2
2017-10-31T08:04:52.667Z,950.1
2017-10-31T08:06:00.742Z,950.1
2017-10-31T08:07:08.782Z,950.1
2017-10-31T08:08:16.865Z,950.1
2017-10-31T08:09:24.952Z,950.1
2017-10-31T08:10:33.250Z,950.0
2017-10-31T08:11:41.136Z,950.0
2017-10-31T08:12:49.212Z,950.0
2017-10-31T08:13:57.294Z,950.1
2017-10-31T08:15:05.376Z,950.1
2017-10-31T08:16:13.631Z,950.1
2017-10-31T08:17:21.547Z,950.1
2017-10-31T08:18:29.630Z,950.2
2017-10-31T08:19:37.780Z,950.2
2017-10-31T08:20:45.801Z,950.2
2017-10-31T08:21:53.945Z,950.2
2017-10-31T08:23:01.979Z,950.2
2017-10-31T08:24:10.059Z,950.2
2017-10-31T08:25:18.152Z,950.2
2017-10-31T08:26:26.282Z,950.2
2017-10-31T08:27:34.370Z,950.2
2017-10-31T08:28:42.398Z,950.2
2017-10-31T08:29:50.513Z,950.1
2017-10-31T08:30:58.569Z,950.2
2017-10-31T08:32:06.663Z,950.2
2017-10-31T08:33:15.123Z,950.2
2017-10-31T08:34:22.822Z,950.2
2017-10-31T08:35:30.918Z,950.2
2017-10-31T08:36:38.992Z,950.2
2017-10-31T08:37:47.080Z,950.2
2017-10-31T08:38:55.370Z,950.2
2017-10-31T08:40:03.259Z,950.2
2017-10-31T08:41:11.344Z,950.3
2017-10-31T08:42:19.548Z,950.2
2017-10-31T08:43:27.582Z,950.3
2017-10-31T08:44:35.651Z,950.3
2017-10-31T08:45:43.681Z,950.3
2017-10-31T08:46:51.767Z,950.4
2017-10-31T08:47:59.901Z,950.4
2017-10-31T08:49:07.937Z,950.3
2017-10-31T08:50:16.083Z,950.4
2017-10-31T08:51:24.109Z,950.3
2017-10-31T08:52:32.356Z,950.3
2017-10-31T08:53:40.304Z,950.3
2017-10-31T08:54:48.423Z,950.3
2017-10-31T08:55:56.529Z,950.3
2017-10-31T08:57:04.563Z,950.3
2017-10-31T08:58:12.958Z,950.2
2017-10-31T08:59:20.782Z,950.3
2017-10-31T09:00:28.888Z,950.3
2017-10-31T09:01:37.282Z,950.3
2017-10-31T09:02:44.985Z,950.3
2017-10-31T09:03:53.070Z,950.3
2017-10-31T09:05:01.359Z,950.3
2017-10-31T09:06:09.261Z,950.3
2017-10-31T09:07:17.395Z,950.4
2017-10-31T09:08:25.427Z,950.4
2017-10-31T09:09:33.518Z,950.4
2017-10-31T09:10:41.883Z,950.4
2017-10-31T09:11:49.683Z,950.4
2017-10-31T09:12:57.825Z,950.5
2017-10-31T09:14:06.108Z,950.5
2017-10-31T09:15:13.938Z,950.5
2017-10-31T09:16:22.024Z,950.5
2017-10-31T09:17:30.108Z,950.5
2017-10-31T09:18:38.249Z,950.5
2017-10-31T09:19:46.292Z,950.5
2017-10-31T09:20:54.362Z,950.5
2017-10-31T09:22:02.450Z,950.5
2017-10-31T09:23:10.538Z,950.5
2017-10-31T09:24:18.677Z,950.5
2017-10-31T09:25:26.790Z,950.5
2017-10-31T09:26:34.788Z,950.5
2017-10-31T09:27:42.874Z,950.5
2017-10-31T09:28:50.960Z,950.5
2017-10-31T09:29:59.197Z,950.5
2017-10-31T09:31:07.131Z,950.5
2017-10-31T09:32:15.218Z,950.5
2017-10-31T09:33:23.305Z,950.5
2017-10-31T09:34:31.470Z,950.5
2017-10-31T09:35:39.526Z,950.5
2017-10-31T09:36:47.557Z,950.5
2017-10-31T09:37:55.640Z,950.5
2017-10-31T09:39:03.914Z,950.4
2017-10-31T09:40:11.844Z,950.5
2017-10-31T09:41:20.017Z,950.5
2017-10-31T09:42:27.979Z,950.4
2017-10-31T09:43:36.065Z,950.4
2017-10-31T09:44:44.152Z,950.4
2017-10-31T09:45:52.354Z,950.4
2017-10-31T09:47:00.375Z,950.4
2017-10-31T09:48:08.577Z,950.4
2017-10-31T09:49:16.490Z,950.4
2017-10-31T09:50:24.576Z,950.4
2017-10-31T09:51:32.660Z,950.4
2017-10-31T09:52:40.995Z,950.4
2017-10-31T09:53:48.830Z,950.4
2017-10-31T09:54:56.914Z,950.5
2017-10-31T09:56:05.002Z,950.5
2017-10-31T09:57:13.101Z,950.5
2017-10-31T09:58:21.242Z,950.4
2017-10-31T09:59:29.271Z,950.4
2017-10-31T10:00:37.355Z,950.4
2017-10-31T10:01:45.560Z,950.4
2017-10-31T10:02:53.524Z,950.4
2017-10-31T10:04:01.667Z,950.3
2017-10-31T10:05:09.715Z,950.4
2017-10-31T10:06:17.794Z,950.3
2017-10-31T10:07:25.878Z,950.3
2017-10-31T10:08:33.961Z,950.4
2017-10-31T10:09:42.100Z,950.4
2017-10-31T10:10:50.133Z,950.4
2017-10-31T10:11:58.364Z,950.4
2017-10-31T10:13:06.303Z,950.4
2017-10-31T10:14:14.390Z,950.4
2017-10-31T10:15:22.601Z,950.4
2017-10-31T10:16:30.595Z,950.3
2017-10-31T10:17:38.701Z,950.3
2017-10-31T10:18:46.730Z,950.3
2017-10-31T10:19:54.812Z,950.3
2017-10-31T10:21:02.993Z,950.3
2017-10-31T10:22:10.982Z,950.4
2017-10-31T10:23:19.069Z,950.3
2017-10-31T10:24:27.154Z,950.3
2017-10-31T10:25:35.239Z,950.3
2017-10-31T10:26:43.379Z,950.3
2017-10-31T10:27:51.409Z,950.3
2017-10-31T10:28:59.494Z,950.3
2017-10-31T10:30:07.578Z,950.3
2017-10-31T10:31:15.847Z,950.2
2017-10-31T10:32:23.806Z,950.3
2017-10-31T10:33:31.891Z,950.2
2017-10-31T10:34:39.920Z,950.2
2017-10-31T10:35:48.006Z,950.2
2017-10-31T10:36:56.098Z,950.1
2017-10-31T10:38:04.249Z,950.1
2017-10-31T10:39:12.346Z,950.1
2017-10-31T10:40:20.357Z,950.1
2017-10-31T10:41:28.460Z,950.1
2017-10-31T10:42:36.528Z,950.0
2017-10-31T10:43:44.669Z,950.0
2017-10-31T10:44:52.697Z,950.0
2017-10-31T10:46:00.781Z,950.0
2017-10-31T10:47:08.867Z,950.0
2017-10-31T10:48:16.951Z,950.0
2017-10-31T10:49:25.131Z,950.0
2017-10-31T10:50:33.123Z,950.0
2017-10-31T10:51:41.207Z,950.0
2017-10-31T10:52:49.295Z,950.0
2017-10-31T10:53:57.375Z,950.0
2017-10-31T10:55:05.518Z,949.9
2017-10-31T10:56:13.546Z,949.9
2017-10-31T10:57:21.631Z,950.0
2017-10-31T10:58:29.767Z,950.0
2017-10-31T10:59:37.803Z,950.0
2017-10-31T11:00:46.137Z,950.0
2017-10-31T11:01:53.972Z,950.0
2017-10-31T11:03:02.128Z,950.0
2017-10-31T11:04:10.143Z,950.0
2017-10-31T11:05:18.284Z,950.0
2017-10-31T11:06:26.432Z,950.0
2017-10-31T11:07:34.405Z,949.9
2017-10-31T11:08:42.494Z,950.0
2017-10-31T11:09:50.574Z,949.9
2017-10-31T11:10:58.663Z,950.0
2017-10-31T11:12:06.868Z,949.9
2017-10-31T11:13:14.830Z,949.9
2017-10-31T11:14:22.918Z,950.0
2017-10-31T11:15:31.003Z,950.0
2017-10-31T11:16:39.087Z,949.9
2017-10-31T11:17:47.235Z,949.9
2017-10-31T11:18:55.259Z,949.9
2017-10-31T11:20:03.344Z,949.9
2017-10-31T11:21:11.556Z,949.9
2017-10-31T11:22:19.516Z,949.9
2017-10-31T11:23:27.660Z,949.8
2017-10-31T11:24:35.684Z,949.9
2017-10-31T11:25:43.768Z,949.8
2017-10-31T11:26:51.852Z,949.9
2017-10-31T11:27:59.939Z,949.9
2017-10-31T11:29:08.152Z,949.8
2017-10-31T11:30:16.111Z,949.8
2017-10-31T11:31:24.199Z,949.8
2017-10-31T11:32:32.286Z,949.8
2017-10-31T11:33:40.371Z,949.8
2017-10-31T11:34:48.512Z,949.8
2017-10-31T11:35:56.599Z,949.8
2017-10-31T11:37:04.681Z,949.8
2017-10-31T11:38:12.718Z,949.8
2017-10-31T11:39:20.798Z,949.7
2017-10-31T11:40:31.009Z,949.7
2017-10-31T11:41:36.965Z,949.7
2017-10-31T11:42:45.052Z,949.7
2017-10-31T11:43:53.139Z,949.6
2017-10-31T11:45:01.673Z,949.6
2017-10-31T11:46:09.425Z,949.6
2017-10-31T11:47:17.391Z,949.7
2017-10-31T11:48:25.476Z,949.6
2017-10-31T11:49:33.635Z,949.6
2017-10-31T11:50:41.671Z,949.7
2017-10-31T11:51:49.785Z,949.7
2017-10-31T11:52:57.871Z,949.7
2017-10-31T11:54:05.899Z,949.7
2017-10-31T11:55:13.986Z,949.7
2017-10-31T11:56:22.072Z,949.7
2017-10-31T11:57:30.210Z,949.7
2017-10-31T11:58:38.240Z,949.7
2017-10-31T11:59:46.329Z,949.7
2017-10-31T12:00:54.412Z,949.7
2017-10-31T12:02:02.675Z,949.6
2017-10-31T12:03:10.633Z,949.6
2017-10-31T12:04:18.668Z,949.6
2017-10-31T12:05:26.748Z,949.6
2017-10-31T12:06:34.936Z,949.6
2017-10-31T12:07:42.916Z,949.6
2017-10-31T12:08:51.057Z,949.7
2017-10-31T12:09:59.087Z,949.6
2017-10-31T12:11:07.169Z,949.7
2017-10-31T12:12:15.260Z,949.7
2017-10-31T12:13:23.340Z,949.7
2017-10-31T12:14:31.480Z,949.6
2017-10-31T12:15:39.511Z,949.6
2017-10-31T12:16:47.597Z,949.6
2017-10-31T12:17:55.789Z,949.6
2017-10-31T12:19:03.781Z,949.6
2017-10-31T12:20:11.972Z,949.6
2017-10-31T12:21:19.934Z,949.6
2017-10-31T12:22:28.120Z,949.6
2017-10-31T12:23:36.112Z,949.6
2017-10-31T12:24:44.267Z,949.6
2017-10-31T12:25:52.369Z,949.6
2017-10-31T12:27:00.445Z,949.6
2017-10-31T12:28:08.462Z,949.6
2017-10-31T12:29:16.556Z,949.6
2017-10-31T12:30:24.635Z,949.6
2017-10-31T12:31:32.776Z,949.5
2017-10-31T12:32:40.803Z,949.6
2017-10-31T12:33:48.887Z,949.5
2017-10-31T12:34:56.984Z,949.5
2017-10-31T12:36:05.074Z,949.6
2017-10-31T12:37:13.220Z,949.5
2017-10-31T12:38:21.251Z,949.5
2017-10-31T12:39:29.335Z,949.5
2017-10-31T12:40:37.491Z,949.5
2017-10-31T12:41:45.563Z,949.5
2017-10-31T12:42:53.644Z,949.6
2017-10-31T12:44:01.675Z,949.5
2017-10-31T12:45:09.759Z,949.5
2017-10-31T12:46:17.843Z,949.5
2017-10-31T12:47:25.935Z,949.5
2017-10-31T12:48:34.072Z,949.5
2017-10-31T12:49:42.201Z,949.5
2017-10-31T12:50:50.241Z,949.5
2017-10-31T12:51:58.279Z,949.5
2017-10-31T12:53:06.353Z,949.5
2017-10-31T12:54:14.617Z,949.5
2017-10-31T12:55:22.523Z,949.5
2017-10-31T12:56:30.665Z,949.5
2017-10-31T12:57:38.720Z,949.5
2017-10-31T12:58:46.804Z,949.5
2017-10-31T12:59:54.946Z,949.5
2017-10-31T13:01:02.977Z,949.5
2017-10-31T13:02:11.061Z,949.5
2017-10-31T13:03:19.153Z,949.5
2017-10-31T13:04:27.251Z,949.5
2017-10-31T13:05:35.397Z,949.5
2017-10-31T13:06:43.422Z,949.5
2017-10-31T13:07:51.556Z,949.5
2017-10-31T13:08:59.586Z,949.6
2017-10-31T13:10:07.673Z,949.6
2017-10-31T13:11:15.825Z,949.5
2017-10-31T13:12:23.976Z,949.5
2017-10-31T13:13:31.941Z,949.5
2017-10-31T13:14:40.033Z,949.5
2017-10-31T13:15:48.361Z,949.5
2017-10-31T13:16:56.620Z,949.5
2017-10-31T13:18:04.650Z,949.5
2017-10-31T13:19:12.729Z,949.5
2017-10-31T13:20:20.813Z,949.5
2017-10-31T13:21:28.906Z,949.5
2017-10-31T13:22:37.038Z,949.4
2017-10-31T13:23:45.067Z,949.5
2017-10-31T13:24:53.160Z,949.4
2017-10-31T13:26:01.245Z,949.4
2017-10-31T13:27:09.330Z,949.4
2017-10-31T13:28:17.533Z,949.4
2017-10-31T13:29:25.498Z,949.4
2017-10-31T13:30:33.583Z,949.4
2017-10-31T13:31:41.779Z,949.4
2017-10-31T13:32:49.799Z,949.4
2017-10-31T13:33:57.901Z,949.4
2017-10-31T13:35:06.050Z,949.4
2017-10-31T13:36:14.006Z,949.4
2017-10-31T13:37:22.096Z,949.4
2017-10-31T13:38:30.187Z,949.4
2017-10-31T13:39:38.357Z,949.4
2017-10-31T13:40:46.364Z,949.3
2017-10-31T13:41:54.478Z,949.4
2017-10-31T13:43:02.528Z,949.3
2017-10-31T13:44:10.733Z,949.4
2017-10-31T13:45:18.752Z,949.4
2017-10-31T13:46:26.790Z,949.4
2017-10-31T13:47:34.876Z,949.4
2017-10-31T13:48:42.961Z,949.4
2017-10-31T13:49:51.049Z,949.4
2017-10-31T13:50:59.189Z,949.5
2017-10-31T13:52:07.221Z,949.5
2017-10-31T13:53:15.300Z,949.5
2017-10-31T13:54:23.390Z,949.5
2017-10-31T13:55:31.472Z,949.5
2017-10-31T13:56:39.614Z,949.5
2017-10-31T13:57:47.669Z,949.5
2017-10-31T13:58:56.194Z,949.5
2017-10-31T14:00:04.513Z,949.5
2017-10-31T14:01:12.495Z,949.5
2017-10-31T14:02:20.499Z,949.4
2017-10-31T14:03:28.526Z,949.5
2017-10-31T14:04:36.616Z,949.4
2017-10-31T14:05:44.694Z,949.4
2017-10-31T14:06:52.782Z,949.4
2017-10-31T14:08:00.992Z,949.4
2017-10-31T14:09:08.952Z,949.4
2017-10-31T14:10:18.109Z,949.4
2017-10-31T14:11:26.188Z,949.4
2017-10-31T14:12:34.276Z,949.4
2017-10-31T14:13:42.414Z,949.4
2017-10-31T14:14:50.536Z,949.4
2017-10-31T14:15:58.584Z,949.4
2017-10-31T14:17:06.613Z,949.5
2017-10-31T14:18:14.696Z,949.4
2017-10-31T14:19:22.839Z,949.4
2017-10-31T14:20:30.870Z,949.4
2017-10-31T14:21:38.955Z,949.4
2017-10-31T14:22:47.044Z,949.4
2017-10-31T14:23:55.121Z,949.4
2017-10-31T14:25:03.311Z,949.4
2017-10-31T14:26:11.301Z,949.4
2017-10-31T14:27:19.385Z,949.3
2017-10-31T14:28:27.644Z,949.3
2017-10-31T14:29:35.556Z,949.3
2017-10-31T14:30:43.698Z,949.4
2017-10-31T14:31:51.782Z,949.4
2017-10-31T14:32:59.892Z,949.3
2017-10-31T14:34:07.894Z,949.3
2017-10-31T14:35:15.979Z,949.4
2017-10-31T14:36:24.121Z,949.4